createdAt,value
2019-04-30T00:01:37.870Z,97301.91
2019-04-30T00:04:40.504Z,97299.62
2019-04-30T00:07:14.706Z,97301.16
2019-04-30T00:09:41.990Z,97307.30
2019-04-30T00:12:11.640Z,97306.28
2019-04-30T00:14:41.409Z,97296.49
2019-04-30T00:17:15.849Z,97306.57
2019-04-30T00:19:42.464Z,97310.34
2019-04-30T00:22:11.896Z,97297.10
2019-04-30T00:24:46.782Z,97294.99
2019-04-30T00:27:12.395Z,97303.58
2019-04-30T00:29:41.734Z,97292.39
2019-04-30T00:32:11.124Z,97295.87
2019-04-30T00:34:40.620Z,97296.38
2019-04-30T00:37:13.998Z,97289.86
2019-04-30T00:39:44.339Z,97280.87
2019-04-30T00:42:12.343Z,97270.62
2019-04-30T00:44:41.725Z,97277.70
2019-04-30T00:47:11.103Z,97272.12
2019-04-30T00:49:40.460Z,97269.39
2019-04-30T00:52:09.850Z,97268.31
2019-04-30T00:54:39.277Z,97269.50
2019-04-30T00:57:08.639Z,97260.95
2019-04-30T00:59:39.872Z,97261.67
2019-04-30T01:02:43.193Z,97263.20
2019-04-30T01:05:15.733Z,97260.41
2019-04-30T01:07:48.776Z,97264.87
2019-04-30T01:10:19.652Z,97262.00
2019-04-30T01:12:50.320Z,97268.55
2019-04-30T01:15:19.025Z,97261.82
2019-04-30T01:17:50.994Z,97266.47
2019-04-30T01:20:24.206Z,97265.82
2019-04-30T01:22:51.586Z,97255.80
2019-04-30T01:25:20.947Z,97249.00
2019-04-30T01:27:50.407Z,97242.92
2019-04-30T01:30:22.744Z,97240.77
2019-04-30T01:32:56.786Z,97241.37
2019-04-30T01:35:23.904Z,97236.70
2019-04-30T01:37:53.252Z,97227.45
2019-04-30T01:40:22.591Z,97226.89
2019-04-30T01:42:52.024Z,97238.11
2019-04-30T01:45:23.199Z,97233.59
2019-04-30T01:47:52.511Z,97226.45
2019-04-30T01:50:21.865Z,97221.93
2019-04-30T01:52:54.312Z,97209.19
2019-04-30T01:55:52.594Z,97211.10
2019-04-30T01:58:30.007Z,97201.46
2019-04-30T02:01:02.015Z,97196.37
2019-04-30T02:03:31.378Z,97203.05
2019-04-30T02:06:00.728Z,97208.70
2019-04-30T02:08:30.397Z,97206.42
2019-04-30T02:10:59.773Z,97210.42
2019-04-30T02:13:34.212Z,97210.23
2019-04-30T02:16:00.257Z,97201.73
2019-04-30T02:18:29.796Z,97205.76
2019-04-30T02:20:59.622Z,97199.09
2019-04-30T02:23:29.660Z,97197.13
2019-04-30T02:25:59.377Z,97194.58
2019-04-30T02:28:29.106Z,97193.00
2019-04-30T02:31:00.330Z,97186.45
2019-04-30T02:33:31.400Z,97194.91
2019-04-30T02:36:26.007Z,97194.26
2019-04-30T02:38:56.227Z,97194.09
2019-04-30T02:41:26.060Z,97193.70
2019-04-30T02:43:56.577Z,97197.91
2019-04-30T02:46:31.949Z,97198.77
2019-04-30T02:48:59.785Z,97201.67
2019-04-30T02:51:30.340Z,97197.83
2019-04-30T02:54:13.058Z,97205.39
2019-04-30T02:56:44.281Z,97200.95
2019-04-30T02:59:13.740Z,97198.25
2019-04-30T03:01:43.199Z,97204.94
2019-04-30T03:04:12.543Z,97204.13
2019-04-30T03:06:41.983Z,97197.17
2019-04-30T03:09:11.410Z,97197.19
2019-04-30T03:11:41.161Z,97191.50
2019-04-30T03:14:11.048Z,97195.34
2019-04-30T03:17:06.433Z,97194.35
2019-04-30T03:19:53.216Z,97188.77
2019-04-30T03:22:25.093Z,97198.72
2019-04-30T03:24:54.497Z,97201.63
2019-04-30T03:27:24.826Z,97202.27
2019-04-30T03:29:54.427Z,97191.32
2019-04-30T03:32:23.795Z,97193.75
2019-04-30T03:34:53.165Z,97195.32
2019-04-30T03:37:22.531Z,97193.08
2019-04-30T03:39:51.891Z,97190.75
2019-04-30T03:42:21.240Z,97192.22
2019-04-30T03:44:50.623Z,97194.26
2019-04-30T03:47:20.402Z,97199.61
2019-04-30T03:49:50.104Z,97195.95
2019-04-30T03:52:19.912Z,97193.28
2019-04-30T03:54:49.549Z,97183.38
2019-04-30T03:57:20.575Z,97189.27
2019-04-30T03:59:50.254Z,97182.12
2019-04-30T04:02:37.254Z,97184.47
2019-04-30T04:05:29.919Z,97188.63
2019-04-30T04:08:21.280Z,97191.52
2019-04-30T04:10:54.779Z,97189.37
2019-04-30T04:13:24.131Z,97187.63
2019-04-30T04:15:53.503Z,97189.17
2019-04-30T04:18:22.912Z,97190.82
2019-04-30T04:21:07.520Z,97194.10
2019-04-30T04:23:23.347Z,97190.20
2019-04-30T04:25:52.784Z,97186.28
2019-04-30T04:28:22.152Z,97187.22
2019-04-30T04:30:51.552Z,97186.63
2019-04-30T04:33:20.924Z,97199.51
2019-04-30T04:35:50.280Z,97205.12
2019-04-30T04:38:20.345Z,97203.20
2019-04-30T04:40:50.417Z,97203.81
2019-04-30T04:43:20.330Z,97206.56
2019-04-30T04:45:50.207Z,97211.61
2019-04-30T04:48:22.984Z,97206.84
2019-04-30T04:50:50.734Z,97204.45
2019-04-30T04:53:20.217Z,97210.41
2019-04-30T04:55:50.064Z,97206.95
2019-04-30T05:00:49.692Z,97210.61
2019-04-30T05:03:24.486Z,97210.38
2019-04-30T05:05:53.848Z,97207.58
2019-04-30T05:08:23.286Z,97205.39
2019-04-30T05:10:52.670Z,97210.41
2019-04-30T05:13:22.044Z,97207.07
2019-04-30T05:15:51.702Z,97212.20
2019-04-30T05:18:22.723Z,97217.66
2019-04-30T05:20:52.314Z,97205.58
2019-04-30T05:23:22.020Z,97217.01
2019-04-30T05:25:51.703Z,97216.28
2019-04-30T05:28:21.157Z,97217.52
2019-04-30T05:30:50.524Z,97214.11
2019-04-30T05:33:19.879Z,97217.59
2019-04-30T05:35:49.635Z,97224.77
2019-04-30T05:38:19.092Z,97226.23
2019-04-30T05:40:49.604Z,97222.52
2019-04-30T05:43:19.318Z,97220.50
2019-04-30T05:45:49.204Z,97221.67
2019-04-30T05:48:18.792Z,97233.32
2019-04-30T05:50:51.529Z,97234.76
2019-04-30T05:53:19.287Z,97241.92
2019-04-30T05:55:49.352Z,97236.16
2019-04-30T05:58:19.715Z,97230.52
2019-04-30T06:00:49.947Z,97230.68
2019-04-30T06:03:27.749Z,97236.94
2019-04-30T06:05:50.695Z,97238.53
2019-04-30T06:08:22.369Z,97238.39
2019-04-30T06:10:59.631Z,97239.92
2019-04-30T06:13:38.381Z,97233.57
2019-04-30T06:16:11.020Z,97230.88
2019-04-30T06:18:42.220Z,97240.42
2019-04-30T06:21:11.792Z,97239.81
2019-04-30T06:23:41.238Z,97240.30
2019-04-30T06:26:13.206Z,97239.45
2019-04-30T06:28:42.012Z,97240.86
2019-04-30T06:31:11.477Z,97243.50
2019-04-30T06:33:41.209Z,97243.77
2019-04-30T06:36:11.650Z,97237.70
2019-04-30T06:38:41.109Z,97235.94
2019-04-30T06:41:10.487Z,97246.58
2019-04-30T06:43:40.148Z,97253.78
2019-04-30T06:46:09.596Z,97253.56
2019-04-30T06:48:39.267Z,97260.72
2019-04-30T06:51:10.302Z,97257.70
2019-04-30T06:53:39.708Z,97262.22
2019-04-30T06:56:09.043Z,97261.95
2019-04-30T06:58:38.850Z,97263.06
2019-04-30T07:01:09.687Z,97265.70
2019-04-30T07:03:39.099Z,97273.43
2019-04-30T07:06:08.497Z,97271.36
2019-04-30T07:08:55.700Z,97265.03
2019-04-30T07:11:34.823Z,97268.86
2019-04-30T07:14:04.367Z,97272.28
2019-04-30T07:16:33.718Z,97262.45
2019-04-30T07:19:03.128Z,97259.97
2019-04-30T07:21:36.381Z,97256.90
2019-04-30T07:24:03.704Z,97263.23
2019-04-30T07:26:33.071Z,97265.21
2019-04-30T07:29:02.731Z,97257.56
2019-04-30T07:31:32.112Z,97259.50
2019-04-30T07:34:01.553Z,97262.05
2019-04-30T07:36:45.921Z,97265.13
2019-04-30T07:39:02.060Z,97269.56
2019-04-30T07:41:31.447Z,97276.16
2019-04-30T07:44:00.888Z,97282.08
2019-04-30T07:46:35.270Z,97283.13
2019-04-30T07:49:01.299Z,97278.27
2019-04-30T07:51:33.424Z,97279.18
2019-04-30T07:54:02.118Z,97280.63
2019-04-30T07:56:37.184Z,97281.38
2019-04-30T07:59:02.897Z,97291.14
2019-04-30T08:01:32.324Z,97286.30
2019-04-30T08:04:15.067Z,97292.73
2019-04-30T08:06:44.490Z,97292.73
2019-04-30T08:09:13.900Z,97292.42
2019-04-30T08:11:43.830Z,97298.85
2019-04-30T08:14:13.290Z,97303.34
2019-04-30T08:16:42.908Z,97307.03
2019-04-30T08:19:12.288Z,97301.00
2019-04-30T08:21:41.778Z,97309.58
2019-04-30T08:24:11.271Z,97314.37
2019-04-30T08:26:40.661Z,97318.28
2019-04-30T08:29:09.988Z,97313.27
2019-04-30T08:31:40.909Z,97313.35
2019-04-30T08:34:10.969Z,97310.31
2019-04-30T08:36:40.440Z,97309.51
2019-04-30T08:39:09.889Z,97318.34
2019-04-30T08:41:39.358Z,97319.31
2019-04-30T08:44:09.397Z,97315.44
2019-04-30T08:46:38.892Z,97321.44
2019-04-30T08:49:09.822Z,97318.72
2019-04-30T08:51:39.997Z,97320.88
2019-04-30T08:54:09.800Z,97313.73
2019-04-30T08:56:39.166Z,97319.98
2019-04-30T08:59:11.110Z,97318.53
2019-04-30T09:01:39.787Z,97328.27
2019-04-30T09:04:10.505Z,97335.21
2019-04-30T09:06:40.186Z,97333.67
2019-04-30T09:09:29.568Z,97330.77
2019-04-30T09:11:59.333Z,97337.09
2019-04-30T09:14:29.687Z,97335.64
2019-04-30T09:16:59.659Z,97325.70
2019-04-30T09:19:29.777Z,97330.92
2019-04-30T09:21:59.520Z,97319.25
2019-04-30T09:24:30.961Z,97320.20
2019-04-30T09:27:00.039Z,97328.79
2019-04-30T09:29:29.433Z,97327.63
2019-04-30T09:31:59.540Z,97322.27
2019-04-30T09:34:29.317Z,97324.98
2019-04-30T09:36:59.325Z,97318.59
2019-04-30T09:39:29.712Z,97323.74
2019-04-30T09:42:00.826Z,97335.15
2019-04-30T09:44:30.945Z,97330.77
2019-04-30T09:47:00.743Z,97333.00
2019-04-30T09:49:30.527Z,97331.89
2019-04-30T09:52:00.691Z,97334.95
2019-04-30T09:54:31.510Z,97331.95
2019-04-30T09:57:09.107Z,97333.84
2019-04-30T09:59:38.807Z,97329.25
2019-04-30T10:02:09.273Z,97327.65
2019-04-30T10:04:39.787Z,97325.91
2019-04-30T10:07:09.776Z,97319.72
2019-04-30T10:09:39.169Z,97335.36
2019-04-30T10:12:15.551Z,97320.96
2019-04-30T10:14:44.996Z,97318.03
2019-04-30T10:17:24.137Z,97318.38
2019-04-30T10:19:53.528Z,97323.59
2019-04-30T10:22:22.903Z,97315.06
2019-04-30T10:24:53.905Z,97312.45
2019-04-30T10:27:23.781Z,97306.28
2019-04-30T10:29:53.163Z,97312.27
2019-04-30T10:32:22.611Z,97318.80
2019-04-30T10:34:51.989Z,97324.86
2019-04-30T10:37:38.775Z,97321.52
2019-04-30T10:40:10.284Z,97318.25
2019-04-30T10:42:39.878Z,97314.13
2019-04-30T10:45:09.948Z,97325.33
2019-04-30T10:47:39.527Z,97318.86
2019-04-30T10:50:09.893Z,97315.38
2019-04-30T10:52:39.534Z,97325.61
2019-04-30T10:55:09.351Z,97320.67
2019-04-30T10:57:39.637Z,97316.91
2019-04-30T11:00:12.639Z,97314.92
2019-04-30T11:02:42.087Z,97320.53
2019-04-30T11:05:12.533Z,97325.19
2019-04-30T11:07:42.253Z,97318.64
2019-04-30T11:10:11.778Z,97318.49
2019-04-30T11:12:41.224Z,97315.41
2019-04-30T11:15:11.262Z,97304.34
2019-04-30T11:17:40.846Z,97309.28
2019-04-30T11:20:10.853Z,97303.83
2019-04-30T11:22:40.592Z,97303.64
2019-04-30T11:25:10.493Z,97309.05
2019-04-30T11:27:41.363Z,97306.16
2019-04-30T11:30:20.479Z,97301.34
2019-04-30T11:32:46.015Z,97296.88
2019-04-30T11:35:18.446Z,97299.62
2019-04-30T11:37:47.531Z,97295.68
2019-04-30T11:40:31.136Z,97291.38
2019-04-30T11:42:51.421Z,97289.55
2019-04-30T11:45:22.547Z,97293.37
2019-04-30T11:47:54.089Z,97279.95
2019-04-30T11:50:23.534Z,97281.94
2019-04-30T11:52:52.950Z,97284.69
2019-04-30T11:55:22.353Z,97284.23
2019-04-30T11:57:51.780Z,97279.77
2019-04-30T12:00:29.552Z,97276.58
2019-04-30T12:02:59.354Z,97273.37
2019-04-30T12:05:29.076Z,97268.77
2019-04-30T12:08:26.389Z,97270.34
2019-04-30T12:11:04.719Z,97275.66
2019-04-30T12:13:34.244Z,97271.91
2019-04-30T12:16:04.077Z,97280.57
2019-04-30T12:18:33.432Z,97264.83
2019-04-30T12:21:02.903Z,97266.88
2019-04-30T12:23:32.341Z,97262.91
2019-04-30T12:26:03.001Z,97257.59
2019-04-30T12:28:32.678Z,97255.34
2019-04-30T12:31:02.182Z,97248.18
2019-04-30T12:33:31.723Z,97247.84
2019-04-30T12:36:01.595Z,97251.95
2019-04-30T12:38:30.992Z,97248.11
2019-04-30T12:41:00.460Z,97243.77
2019-04-30T12:43:29.917Z,97246.19
2019-04-30T12:46:04.920Z,97239.92
2019-04-30T12:48:55.994Z,97248.34
2019-04-30T12:51:45.606Z,97248.30
2019-04-30T12:54:17.813Z,97236.08
2019-04-30T12:57:04.307Z,97237.14
2019-04-30T12:59:33.866Z,97237.31
2019-04-30T13:02:03.457Z,97237.97
2019-04-30T13:04:32.970Z,97239.55
2019-04-30T13:07:03.221Z,97246.97
2019-04-30T13:09:33.819Z,97239.14
2019-04-30T13:12:04.324Z,97236.77
2019-04-30T13:14:36.961Z,97236.09
2019-04-30T13:17:07.342Z,97240.38
2019-04-30T13:19:36.601Z,97236.59
2019-04-30T13:22:06.104Z,97232.55
2019-04-30T13:24:35.693Z,97231.94
2019-04-30T13:27:05.280Z,97236.27
2019-04-30T13:29:41.679Z,97235.07
2019-04-30T13:32:11.155Z,97231.07
2019-04-30T13:34:51.169Z,97236.67
2019-04-30T13:37:20.677Z,97232.85
2019-04-30T13:40:07.910Z,97238.90
2019-04-30T13:42:40.819Z,97236.45
2019-04-30T13:45:10.448Z,97238.48
2019-04-30T13:47:39.973Z,97237.30
2019-04-30T13:50:09.592Z,97234.97
2019-04-30T13:52:39.211Z,97233.09
2019-04-30T13:55:10.692Z,97242.55
2019-04-30T13:57:39.922Z,97228.38
2019-04-30T14:00:11.613Z,97238.02
2019-04-30T14:02:44.972Z,97236.83
2019-04-30T14:05:15.754Z,97246.41
2019-04-30T14:07:55.907Z,97237.56
2019-04-30T14:10:25.445Z,97235.75
2019-04-30T14:12:57.925Z,97240.77
2019-04-30T14:15:29.224Z,97235.94
2019-04-30T14:17:59.695Z,97236.78
2019-04-30T14:20:29.358Z,97236.53
2019-04-30T14:22:58.829Z,97230.16
2019-04-30T14:25:28.663Z,97243.19
2019-04-30T14:27:59.289Z,97236.63
2019-04-30T14:30:29.288Z,97238.02
2019-04-30T14:32:59.425Z,97243.97
2019-04-30T14:35:31.006Z,97239.83
2019-04-30T14:38:00.791Z,97234.22
2019-04-30T14:40:31.065Z,97237.56
2019-04-30T14:43:12.757Z,97238.19
2019-04-30T14:46:01.703Z,97242.34
2019-04-30T14:48:39.933Z,97239.05
2019-04-30T14:51:08.338Z,97239.69
2019-04-30T14:53:51.381Z,97234.87
2019-04-30T14:56:29.794Z,97237.34
2019-04-30T14:59:24.093Z,97240.36
2019-04-30T15:02:01.166Z,97237.19
2019-04-30T15:04:30.685Z,97233.05
2019-04-30T15:07:00.244Z,97239.47
2019-04-30T15:09:29.723Z,97241.94
2019-04-30T15:11:59.173Z,97230.69
2019-04-30T15:14:28.608Z,97231.66
2019-04-30T15:16:58.135Z,97232.95
2019-04-30T15:19:27.733Z,97232.08
2019-04-30T15:22:00.438Z,97234.22
2019-04-30T15:24:34.292Z,97226.59
2019-04-30T15:27:03.971Z,97223.45
2019-04-30T15:29:33.418Z,97221.12
2019-04-30T15:32:02.947Z,97223.57
2019-04-30T15:34:32.343Z,97230.65
2019-04-30T15:37:01.817Z,97221.41
2019-04-30T15:39:39.502Z,97227.45
2019-04-30T15:42:09.313Z,97227.38
2019-04-30T15:44:40.645Z,97223.27
2019-04-30T15:47:10.154Z,97226.57
2019-04-30T15:49:39.796Z,97222.38
2019-04-30T15:52:11.013Z,97218.28
2019-04-30T15:54:41.075Z,97221.80
2019-04-30T15:57:10.605Z,97220.05
2019-04-30T15:59:44.075Z,97222.38
2019-04-30T16:02:38.841Z,97225.16
2019-04-30T16:05:39.768Z,97226.59
2019-04-30T16:08:43.321Z,97222.56
2019-04-30T16:11:19.535Z,97220.67
2019-04-30T16:14:20.445Z,97218.36
2019-04-30T16:16:57.277Z,97215.48
2019-04-30T16:19:28.716Z,97214.26
2019-04-30T16:21:58.066Z,97203.77
2019-04-30T16:24:28.716Z,97205.57
2019-04-30T16:26:59.328Z,97203.86
2019-04-30T16:29:29.085Z,97203.55
2019-04-30T16:31:59.202Z,97204.37
2019-04-30T16:34:30.467Z,97206.59
2019-04-30T16:37:00.188Z,97204.73
2019-04-30T16:39:29.646Z,97204.75
2019-04-30T16:41:59.332Z,97200.89
2019-04-30T16:44:28.757Z,97201.39
2019-04-30T16:46:59.633Z,97204.52
2019-04-30T16:49:29.322Z,97200.12
2019-04-30T16:52:01.452Z,97190.38
2019-04-30T16:54:30.048Z,97201.56
2019-04-30T16:57:04.110Z,97192.14
2019-04-30T16:59:50.092Z,97195.07
2019-04-30T17:02:21.554Z,97194.05
2019-04-30T17:05:01.694Z,97190.23
2019-04-30T17:07:50.632Z,97188.05
2019-04-30T17:10:42.560Z,97191.89
2019-04-30T17:13:26.308Z,97191.76
2019-04-30T17:15:59.545Z,97192.14
2019-04-30T17:18:29.758Z,97195.80
2019-04-30T17:20:59.496Z,97197.95
2019-04-30T17:23:29.371Z,97197.45
2019-04-30T17:25:59.273Z,97200.61
2019-04-30T17:28:28.676Z,97194.45
2019-04-30T17:30:58.923Z,97198.27
2019-04-30T17:33:28.446Z,97202.25
2019-04-30T17:35:57.988Z,97201.20
2019-04-30T17:38:27.385Z,97205.02
2019-04-30T17:40:56.784Z,97201.69
2019-04-30T17:43:26.175Z,97197.22
2019-04-30T17:45:55.646Z,97204.01
2019-04-30T17:48:25.037Z,97202.78
2019-04-30T17:50:54.399Z,97201.98
2019-04-30T17:53:23.959Z,97205.67
2019-04-30T17:55:53.481Z,97213.03
2019-04-30T17:58:22.823Z,97207.76
2019-04-30T18:00:55.060Z,97209.88
2019-04-30T18:03:24.496Z,97217.28
2019-04-30T18:05:54.269Z,97216.17
2019-04-30T18:08:23.727Z,97220.86
2019-04-30T18:10:53.182Z,97218.78
2019-04-30T18:13:22.776Z,97221.41
2019-04-30T18:15:52.266Z,97226.62
2019-04-30T18:18:27.293Z,97232.23
2019-04-30T18:21:19.060Z,97229.01
2019-04-30T18:24:08.553Z,97231.24
2019-04-30T18:26:42.999Z,97227.59
2019-04-30T18:29:12.404Z,97230.81
2019-04-30T18:31:41.789Z,97240.98
2019-04-30T18:34:11.320Z,97237.90
2019-04-30T18:36:40.683Z,97245.88
2019-04-30T18:39:10.100Z,97240.77
2019-04-30T18:41:40.205Z,97247.95
2019-04-30T18:44:09.636Z,97245.72
2019-04-30T18:46:39.147Z,97246.89
2019-04-30T18:49:10.340Z,97252.03
2019-04-30T18:51:42.728Z,97244.39
2019-04-30T18:54:10.915Z,97253.35
2019-04-30T18:56:40.284Z,97246.91
2019-04-30T18:59:09.981Z,97254.95
2019-04-30T19:01:39.347Z,97250.79
2019-04-30T19:04:09.175Z,97253.11
2019-04-30T19:06:38.676Z,97259.63
2019-04-30T19:09:29.499Z,97262.21
2019-04-30T19:12:11.220Z,97264.23
2019-04-30T19:14:49.486Z,97256.72
2019-04-30T19:17:34.358Z,97260.66
2019-04-30T19:20:21.552Z,97264.83
2019-04-30T19:22:51.084Z,97268.24
2019-04-30T19:25:20.546Z,97274.03
2019-04-30T19:27:49.943Z,97271.98
2019-04-30T19:30:19.591Z,97275.27
2019-04-30T19:32:49.246Z,97278.53
2019-04-30T19:35:18.826Z,97282.95
2019-04-30T19:37:48.762Z,97285.48
2019-04-30T19:40:19.032Z,97277.86
2019-04-30T19:42:50.848Z,97290.11
2019-04-30T19:45:20.051Z,97294.92
2019-04-30T19:47:49.529Z,97299.39
2019-04-30T19:50:19.314Z,97299.54
2019-04-30T19:52:48.793Z,97301.84
2019-04-30T19:55:20.440Z,97309.16
2019-04-30T19:57:51.086Z,97310.36
2019-04-30T20:00:21.271Z,97305.45
2019-04-30T20:02:50.711Z,97305.23
2019-04-30T20:05:20.148Z,97306.59
2019-04-30T20:07:49.542Z,97312.26
2019-04-30T20:10:19.556Z,97312.13
2019-04-30T20:12:49.786Z,97306.00
2019-04-30T20:15:22.191Z,97314.10
2019-04-30T20:17:50.382Z,97305.28
2019-04-30T20:20:19.811Z,97310.64
2019-04-30T20:22:51.869Z,97312.03
2019-04-30T20:25:20.255Z,97315.30
2019-04-30T20:27:49.665Z,97313.22
2019-04-30T20:30:19.535Z,97311.95
2019-04-30T20:32:51.194Z,97317.41
2019-04-30T20:35:20.198Z,97310.11
2019-04-30T20:38:09.395Z,97321.45
2019-04-30T20:40:43.602Z,97312.56
2019-04-30T20:43:11.206Z,97318.20
2019-04-30T20:45:40.564Z,97318.72
2019-04-30T20:48:09.939Z,97317.53
2019-04-30T20:50:39.279Z,97312.81
2019-04-30T20:53:08.895Z,97318.23
2019-04-30T20:55:38.811Z,97311.50
2019-04-30T20:58:09.642Z,97325.31
2019-04-30T21:00:39.085Z,97325.98
2019-04-30T21:03:09.696Z,97323.52
2019-04-30T21:05:39.340Z,97322.16
2019-04-30T21:08:08.768Z,97320.34
2019-04-30T21:10:39.660Z,97322.70
2019-04-30T21:13:11.147Z,97316.23
2019-04-30T21:15:40.357Z,97312.52
2019-04-30T21:18:09.707Z,97321.69
2019-04-30T21:20:39.068Z,97326.28
2019-04-30T21:23:09.437Z,97319.31
2019-04-30T21:25:38.958Z,97318.54
2019-04-30T21:28:09.733Z,97319.41
2019-04-30T21:30:39.231Z,97328.47
2019-04-30T21:33:19.359Z,97330.36
2019-04-30T21:35:54.661Z,97331.92
2019-04-30T21:38:24.051Z,97324.39
2019-04-30T21:40:53.510Z,97328.80
2019-04-30T21:43:22.884Z,97324.41
2019-04-30T21:45:52.223Z,97330.02
2019-04-30T21:48:21.579Z,97333.28
2019-04-30T21:50:50.936Z,97327.64
2019-04-30T21:53:20.298Z,97328.97
2019-04-30T21:55:49.834Z,97323.38
2019-04-30T21:58:20.366Z,97322.05
2019-04-30T22:01:18.676Z,97320.38
2019-04-30T22:03:48.262Z,97318.86
2019-04-30T22:06:19.474Z,97320.78
2019-04-30T22:08:49.026Z,97317.86
2019-04-30T22:11:19.766Z,97320.09
2019-04-30T22:13:49.527Z,97322.57
2019-04-30T22:16:20.428Z,97329.45
2019-04-30T22:18:50.376Z,97322.09
2019-04-30T22:21:19.742Z,97315.93
2019-04-30T22:23:49.095Z,97319.21
2019-04-30T22:26:18.465Z,97325.44
2019-04-30T22:28:49.395Z,97325.01
2019-04-30T22:31:19.794Z,97322.99
2019-04-30T22:33:49.524Z,97322.52
2019-04-30T22:36:28.998Z,97321.17
2019-04-30T22:39:12.002Z,97315.60
2019-04-30T22:41:41.532Z,97322.36
2019-04-30T22:44:10.956Z,97319.72
2019-04-30T22:46:40.320Z,97313.02
2019-04-30T22:49:09.837Z,97321.05
2019-04-30T22:51:39.642Z,97311.95
2019-04-30T22:54:08.995Z,97316.25
2019-04-30T22:56:38.485Z,97311.73
2019-04-30T22:59:07.804Z,97311.48
2019-04-30T23:01:55.245Z,97302.75
2019-04-30T23:04:34.565Z,97311.73
2019-04-30T23:07:03.998Z,97301.19
2019-04-30T23:09:33.363Z,97298.92
2019-04-30T23:12:03.328Z,97292.93
2019-04-30T23:14:32.760Z,97300.95
2019-04-30T23:17:02.205Z,97295.69
2019-04-30T23:19:31.641Z,97294.24
2019-04-30T23:22:01.668Z,97288.88
2019-04-30T23:24:31.042Z,97290.90
2019-04-30T23:27:00.430Z,97285.27
2019-04-30T23:29:29.882Z,97283.62
2019-04-30T23:31:59.330Z,97286.85
2019-04-30T23:34:28.712Z,97283.73
2019-04-30T23:36:58.075Z,97281.95
2019-04-30T23:39:27.419Z,97283.50
2019-04-30T23:41:56.877Z,97278.11
2019-04-30T23:44:26.229Z,97282.19
2019-04-30T23:46:55.591Z,97283.77
2019-04-30T23:49:25.111Z,97288.31
2019-04-30T23:51:54.549Z,97286.48
2019-04-30T23:54:23.921Z,97286.34
2019-04-30T23:56:53.289Z,97281.59
2019-04-30T23:59:22.652Z,97280.16
